Flight Track Log - Related Links

Times and Time Zones

All times are in EDT time to prevent confusion due to time zone crossing. See the ASQ6115 flight status page for this flight to view local times or setup timezone preferences in your user account.

Time Position Orientation Groundspeed Altitude Reporting Facility
EDT Latitude Longitude Course Direction KTS MPH feet Rate Location/Type
Mon 11:56:09 AM 42.0167 -87.9667 90° East 178 205 2,700  Level Chicago TRACON
Mon 11:57:15 AM 42.0667 -88.0000 334° Northwest 242 278 4,600 1,339 Climbing Chicago TRACON
Mon 11:58:10 AM 42.1167 -87.9333 45° Northeast 257 296 5,400 1,355 Climbing Chicago TRACON
Mon 11:59:00 AM 41.9488 -87.3497 95° East  Level FlightAware Approximate
Mon 11:59:19 AM 42.1544 -87.8436 60° Northeast 272 313 7,400  Level Chicago Center
Mon 12:00:00 PM 41.9390 -87.2125 95° East  Level FlightAware Approximate
Mon 12:00:21 PM 42.1425 -87.7394 99° East 289 333 9,500  Level Chicago Center
Mon 12:01:00 PM 41.9333 -87.0836 90° East  Level FlightAware Approximate
Mon 12:01:23 PM 42.1111 -87.6286 111° Southeast 314 361 11,500  Level Chicago Center
Mon 12:02:25 PM 42.0783 -87.5172 112° Southeast 320 368 13,300 1,355 Climbing Chicago Center
Mon 12:03:27 PM 42.0339 -87.3667 112° Southeast 358 412 14,300 968 Climbing Chicago Center
Mon 12:04:29 PM 41.9944 -87.2319 111° Southeast 382 440 15,300 1,016 Climbing Chicago Center
Mon 12:05:31 PM 41.9531 -87.0928 112° Southeast 398 458 16,400 1,113 Climbing Chicago Center
Mon 12:06:33 PM 41.9467 -86.9419 93° East 410 472 17,600 1,065 Climbing Chicago Center
Mon 12:07:35 PM 41.9494 -86.7903 89° East 408 470 18,600 1,113 Climbing Chicago Center
Mon 12:08:37 PM 41.9514 -86.6150 89° East 418 481 19,900 1,113 Climbing Chicago Center
Mon 12:09:39 PM 41.9525 -86.4533 89° East 430 495 20,900 968 Climbing Chicago Center
Mon 12:10:41 PM 41.9556 -86.2872 89° East 444 511 21,900 919 Climbing Chicago Center
Mon 12:11:43 PM 41.9236 -86.1242 105° East 465 535 22,800 532 Climbing Chicago Center
Mon 12:12:45 PM 41.8336 -85.9992 134° Southeast 468 539 23,000 97 Climbing Chicago Center
Mon 12:13:47 PM 41.7181 -85.8492 136° Southeast 483 556 23,000  Level Chicago Center
Mon 12:14:49 PM 41.6217 -85.7247 136° Southeast 488 562 23,000  Level Chicago Center
Mon 12:15:51 PM 41.5261 -85.6011 136° Southeast 487 560 23,000  Level Chicago Center
Mon 12:16:53 PM 41.4331 -85.4775 135° Southeast 484 557 23,000  Level Chicago Center
Mon 12:17:55 PM 41.3197 -85.3322 136° Southeast 479 551 23,000  Level Chicago Center
Mon 12:18:57 PM 41.2231 -85.2092 136° Southeast 480 552 23,000 -823 Level Chicago Center
Mon 12:19:59 PM 41.1267 -85.0858 136° Southeast 483 556 21,300 -1,742 Descending Chicago Center
Mon 12:21:01 PM 41.0347 -84.9694 136° Southeast 469 540 19,400 -1,984 Descending Chicago Center
Mon 12:22:03 PM 40.9469 -84.8600 137° Southeast 447 514 17,200 -2,081 Descending Chicago Center
Mon 12:23:05 PM 40.8628 -84.7533 136° Southeast 428 493 15,100 -1,016 Descending Chicago Center
Mon 12:24:07 PM 40.7639 -84.6300 137° Southeast 414 476 15,100 -111 Level Chicago Center
Mon 12:24:53 PM 40.7025 -84.5558 138° Southeast 412 474 14,900 -348 Descending Indianapolis Center
Mon 12:25:16 PM 40.6675 -84.5106 136° Southeast 412 474 14,700 -679 Descending Indianapolis Center
Mon 12:25:46 PM 40.6217 -84.4547 137° Southeast 414 476 14,300 -923 Descending Indianapolis Center
Mon 12:26:47 PM 40.5394 -84.3553 137° Southeast 403 464 13,300 -1,266 Descending Indianapolis Center
Mon 12:27:54 PM 40.4422 -84.3914 196° South 350 403 11,600 -1,218 Descending Indianapolis Center
Mon 12:29:00 PM 40.3586 -84.4378 203° Southwest 338 389 10,600 -1,377 Descending Indianapolis Center
Mon 12:29:56 PM 40.2714 -84.4586 190° South 290 334 8,800 -1,800 Descending Indianapolis Center
Mon 12:30:50 PM 40.2047 -84.4794 193° South 289 333 7,300 -1,686 Descending Indianapolis Center
Mon 12:31:57 PM 40.1206 -84.5061 194° South 262 302 5,400 -1,478 Descending Indianapolis Center
Mon 12:33:04 PM 40.0408 -84.5333 195° South 253 291 4,000 -656 Descending Indianapolis Center
Mon 12:34:05 PM 39.9806 -84.5550 195° South 222 255 4,000  Level Indianapolis Center
Mon 12:35:06 PM 39.9203 -84.5739 194° South 221 254 4,000 -344 Level Indianapolis Center
Mon 12:36:07 PM 39.8669 -84.5583 167° South 214 246 3,300 -517 Descending Indianapolis Center
Mon 12:37:02 PM 39.8200 -84.5167 146° Southeast 220 253 3,000 -155 Descending Indianapolis Center
Mon 12:38:03 PM 39.7958 -84.4533 116° Southeast 214 246 3,000  Level Indianapolis Center

Login

Don't have an account? Register now (free) for customized features, flight alerts, and more!